Terminal Aerodrome Forecast
Issued by NWS Sterling, VA

Home | Current Version | Previous Version | Text Only | Print | Product List | Glossary On
Versions: 1 2 3 4 5 6 7 8 9 10 11 12 13 14 15 16 17 18 19
000
FTUS41 KLWX 061742
TAFCHO
TAF
KCHO 061742Z 0618/0718 17008KT P6SM VCSH SCT040
      TEMPO 0618/0621 2SM -SHRA
     FM062100 17008KT 4SM -TSRA BKN040CB
     FM070100 VRB03KT 6SM -SHRA VCTS BKN040CB
     FM070400 VRB03KT P6SM SCT050=

USA.gov is the U.S. government's official web portal to all federal, state and local government web resources and services.